Latest Coastal Weather Observations for Point Avoid

IDS60701

Issued at 12:41 pm CST Tuesday 28 June 2022 (issued every 10 minutes, with the page automatically refreshed every 10 minutes)

About coastal observations | Map of coastal stations | Coastal observations for SA | Marine services | Other Formats
Station Details ID: 018230 Name: POINT AVOID Lat: -34.67 Lon: 135.34 Height: 35.0 m
Data from the previous 72 hours. | See also: Recent months at Point Avoid
Date/Time
CST
Wind Sea
Height
m
Swell Vis
km
Cloud Weather Temp
°C
Press
MSL
hPa
Rain since
9am
mm
Dir  Spd
kts
Gust
kts
Height
m
Period
s
Dir
28/12:30pm NNW 14 19 - - - - - - - 15.9 1025.0 0.0
28/12:00pm NNW 14 19 - - - - - - - 15.6 1025.6 0.0
28/11:30am N 12 16 - - - - - - - 15.1 1025.9 0.0
28/11:00am N 11 15 - - - - - - - 13.8 1026.2 0.0
28/10:30am N 12 16 - - - - - - - 13.1 1026.6 0.0
28/10:00am N 15 19 - - - - - - - 12.4 1026.9 0.0
28/09:30am N 17 22 - - - - - - - 11.6 1027.0 0.0
28/09:00am N 14 18 - - - - - - - 11.3 1027.0 0.2
28/08:30am NNE 8 13 - - - - - - - 9.9 1027.1 0.2
28/08:00am NNE 8 11 - - - - - - - 8.9 1027.0 0.2
28/07:30am NNE 8 11 - - - - - - - 7.9 1027.1 0.2
28/07:00am NNE 10 13 - - - - - - - 9.4 1027.0 0.2
28/06:30am NNE 9 11 - - - - - - - 8.9 1026.8 0.2
28/06:00am NNE 9 11 - - - - - - - 9.0 1026.7 0.2
28/05:30am NNE 8 11 - - - - - - - 8.8 1026.5 0.2
28/05:00am NNE 10 13 - - - - - - - 9.1 1026.6 0.2
28/04:30am NNE 7 10 - - - - - - - 8.8 1026.8 0.2
28/04:00am NNE 8 9 - - - - - - - 8.3 1027.0 0.2
28/03:30am NNE 7 10 - - - - - - - 8.2 1026.9 0.2
28/03:00am NNE 9 12 - - - - - - - 8.0 1027.2 0.2
28/02:30am NE 7 9 - - - - - - - 7.9 1027.3 0.2
28/02:00am NE 7 8 - - - - - - - 8.1 1027.7 0.2
28/01:30am NE 6 8 - - - - - - - 8.4 1027.9 0.2
28/01:00am NE 8 11 - - - - - - - 8.7 1028.1 0.2
28/12:30am NE 9 11 - - - - - - - 8.9 1028.4 0.2
28/12:00am NNE 6 9 - - - - - - - 8.9 1029.0 0.2
 
Date/Time
CST
Wind Sea
Height
m
Swell Vis
km
Cloud Weather Temp
°C
Press
MSL
hPa
Rain since
9am
mm
Dir  Spd
kts
Gust
kts
Height
m
Period
s
Dir
27/11:30pm NNE 7 9 - - - - - - - 9.0 1029.4 0.2
27/11:00pm NNE 7 8 - - - - - - - 8.9 1029.7 0.2
27/10:30pm NE 6 8 - - - - - - - 8.6 1029.9 0.2
27/10:00pm ENE 5 7 - - - - - - - 8.1 1030.1 0.2
27/09:30pm ENE 6 8 - - - - - - - 8.1 1030.4 0.2
27/09:00pm NE 7 8 - - - - - - - 8.6 1031.0 0.2
27/08:30pm ENE 5 7 - - - - - - - 8.4 1031.2 0.2
27/08:00pm ENE 7 8 - - - - - - - 8.8 1031.2 0.2
27/07:30pm ENE 6 7 - - - - - - - 9.0 1031.3 0.2
27/07:00pm ENE 6 7 - - - - - - - 8.9 1031.3 0.2
27/06:30pm NW 2 3 - - - - - - - 11.1 1031.0 0.2
27/06:00pm NW 2 2 - - - - - - - 10.9 1031.0 0.2
27/05:30pm NW 2 3 - - - - - - - 11.9 1030.9 0.2
27/05:00pm NW 3 4 - - - - - - - 13.1 1030.9 0.2
27/04:30pm NW 3 4 - - - - - - - 14.1 1031.1 0.2
27/04:00pm NW 4 5 - - - - - - - 14.2 1031.3 0.2
27/03:30pm NNW 5 7 - - - - - - - 14.6 1031.4 0.2
27/03:00pm NNW 5 7 - - - - - - - 14.7 1031.7 0.2
27/02:30pm N 5 8 - - - - - - - 14.5 1031.9 0.2
27/02:00pm N 7 9 - - - - - - - 15.1 1032.3 0.2
27/01:30pm N 6 8 - - - - - - - 14.1 1032.6 0.2
27/01:00pm N 6 8 - - - - - - - 14.6 1033.1 0.0
27/12:30pm N 9 11 - - - - - - - 14.5 1033.4 0.0
27/12:00pm N 7 9 - - - - - - - 14.3 1033.9 0.0
27/11:30am N 8 11 - - - - - - - 14.1 1034.2 0.0
27/11:00am N 6 8 - - - - - - - 12.9 1034.7 0.0
27/10:30am NE 6 8 - - - - - - - 11.4 1035.0 0.0
27/10:00am NE 4 6 - - - - - - - 11.5 1035.1 0.0
27/09:30am NE 3 4 - - - - - - - 10.9 1034.8 0.0
27/09:00am NE 4 5 - - - - - - - 9.8 1034.4 0.0
27/08:30am NE 4 5 - - - - - - - 8.4 1034.2 0.0
27/08:00am NE 4 5 - - - - - - - 6.9 1034.0 0.0
27/07:30am NE 4 4 - - - - - - - 6.8 1033.6 0.0
27/07:00am NE 4 5 - - - - - - - 6.6 1033.3 0.0
27/06:30am NE 4 6 - - - - - - - 7.9 1032.9 0.0
27/06:00am ENE 5 6 - - - - - - - 7.5 1032.5 0.0
27/05:30am ENE 6 6 - - - - - - - 6.2 1032.5 0.0
27/05:00am ENE 6 7 - - - - - - - 6.5 1032.3 0.0
27/04:30am ENE 6 6 - - - - - - - 7.2 1032.3 0.0
27/04:00am ENE 4 5 - - - - - - - 7.3 1032.5 0.0
27/03:30am ENE 3 4 - - - - - - - 9.1 1032.9 0.0
27/03:00am ENE 5 5 - - - - - - - 8.1 1033.0 0.0
27/02:30am ENE 5 7 - - - - - - - 8.4 1033.1 0.0
27/02:00am ENE 4 5 - - - - - - - 8.7 1033.1 0.0
27/01:30am ENE 4 5 - - - - - - - 9.4 1033.0 0.0
27/01:00am SSE 5 8 - - - - - - - 10.9 1032.9 0.0
27/12:30am SSE 3 5 - - - - - - - 11.6 1033.2 0.0
27/12:00am SSE 2 3 - - - - - - - 11.2 1033.3 0.0
 
Date/Time
CST
Wind Sea
Height
m
Swell Vis
km
Cloud Weather Temp
°C
Press
MSL
hPa
Rain since
9am
mm
Dir  Spd
kts
Gust
kts
Height
m
Period
s
Dir
26/11:30pm SSE 5 8 - - - - - - - 10.5 1033.2 0.0
26/11:00pm S 5 7 - - - - - - - 11.1 1032.8 0.0
26/10:30pm S 6 9 - - - - - - - 12.1 1032.8 0.0
26/10:00pm SSE 5 7 - - - - - - - 11.7 1032.6 0.0
26/09:30pm S 6 9 - - - - - - - 11.6 1032.5 0.0
26/09:00pm S 6 9 - - - - - - - 11.7 1032.3 0.0
26/08:30pm S 7 8 - - - - - - - 11.9 1032.0 0.0
26/08:00pm S 8 9 - - - - - - - 12.2 1031.7 0.0
26/07:30pm S 8 11 - - - - - - - 12.2 1031.4 0.0
26/07:00pm S 9 11 - - - - - - - 12.5 1031.1 0.0
26/06:30pm S 9 12 - - - - - - - 13.0 1031.0 0.0
26/06:00pm S 11 14 - - - - - - - 13.4 1030.7 0.0
26/05:30pm S 9 13 - - - - - - - 13.5 1030.3 0.0
26/05:00pm S 9 11 - - - - - - - 13.5 1029.9 0.0
26/04:30pm S 10 13 - - - - - - - 13.6 1029.7 0.0
26/04:00pm SSE 8 12 - - - - - - - 13.6 1029.5 0.0
26/03:30pm S 7 11 - - - - - - - 13.4 1029.4 0.0
26/03:00pm S 11 16 - - - - - - - 14.1 1029.3 0.0
26/02:30pm SSW 10 16 - - - - - - - 15.2 1029.1 0.0
26/02:00pm S 11 13 - - - - - - - 14.8 1028.9 0.0
26/01:30pm SSW 11 14 - - - - - - - 14.0 1028.7 0.0
26/01:00pm S 10 12 - - - - - - - 15.3 1028.7 0.0
26/12:30pm SW 10 15 - - - - - - - 16.0 1028.8 0.0
26/12:00pm SSW 10 13 - - - - - - - 14.8 1028.9 0.0
26/11:30am SW 10 14 - - - - - - - 14.9 1029.1 0.0
26/11:00am SW 10 13 - - - - - - - 15.9 1028.9 0.0
26/10:30am WSW 8 13 - - - - - - - 15.7 1028.8 0.0
26/10:00am W 5 6 - - - - - - - 14.1 1028.5 0.0
26/09:30am W 13 18 - - - - - - - 12.6 1028.7 0.0
26/09:00am WSW 9 13 - - - - - - - 14.4 1028.3 1.6
26/08:30am WSW 9 13 - - - - - - - 14.4 1027.4 1.6
26/08:00am SW 9 12 - - - - - - - 13.7 1027.2 1.6
26/07:30am W 10 14 - - - - - - - 13.9 1026.9 1.6
26/07:00am WSW 11 14 - - - - - - - 13.9 1026.6 1.6
26/06:30am W 10 15 - - - - - - - 14.1 1026.5 1.6
26/06:00am WSW 10 13 - - - - - - - 13.4 1026.1 1.6
26/05:30am WSW 10 13 - - - - - - - 13.4 1025.6 1.6
26/05:00am WSW 9 13 - - - - - - - 13.4 1025.4 1.6
26/04:30am SW 7 9 - - - - - - - 12.6 1025.3 1.6
26/04:00am WSW 8 11 - - - - - - - 13.0 1025.1 1.6
26/03:30am WSW 11 15 - - - - - - - 13.5 1025.1 1.6
26/03:00am WSW 9 12 - - - - - - - 13.3 1025.0 1.6
26/02:30am WSW 7 10 - - - - - - - 13.0 1024.9 1.6
26/02:00am WSW 8 13 - - - - - - - 13.2 1024.9 1.6
26/01:30am WSW 7 9 - - - - - - - 12.4 1024.8 1.6
26/01:00am WSW 7 10 - - - - - - - 12.5 1024.7 1.6
26/12:30am WSW 10 13 - - - - - - - 12.7 1024.7 1.6
26/12:00am CALM 0 0 - - - - - - - 11.3 1024.7 1.6
 
Date/Time
CST
Wind Sea
Height
m
Swell Vis
km
Cloud Weather Temp
°C
Press
MSL
hPa
Rain since
9am
mm
Dir  Spd
kts
Gust
kts
Height
m
Period
s
Dir
25/11:30pm WSW 4 6 - - - - - - - 11.6 1024.8 1.6
25/11:00pm W 9 15 - - - - - - - 11.8 1024.8 1.6
25/10:30pm WSW 14 18 - - - - - - - 12.4 1024.8 0.4
25/10:00pm WSW 16 25 - - - - - - - 12.8 1024.6 0.2
25/09:30pm W 12 15 - - - - - - - 14.4 1024.2 0.2
25/09:00pm W 10 13 - - - - - - - 14.2 1023.9 0.2
25/08:30pm W 7 9 - - - - - - - 13.6 1023.7 0.2
25/08:00pm W 8 11 - - - - - - - 13.7 1023.4 0.2
25/07:30pm W 9 12 - - - - - - - 14.0 1023.4 0.2
25/07:00pm WSW 13 17 - - - - - - - 14.7 1023.3 0.2
25/06:30pm W 12 15 - - - - - - - 14.5 1022.8 0.2
25/06:00pm W 13 16 - - - - - - - 14.9 1022.4 0.2
25/05:30pm W 12 16 - - - - - - - 14.8 1022.0 0.2
25/05:00pm W 11 14 - - - - - - - 14.9 1021.9 0.2
25/04:30pm WNW 10 13 - - - - - - - 15.0 1021.6 0.2
25/04:00pm WNW 11 15 - - - - - - - 16.1 1021.5 0.2
25/03:30pm W 12 17 - - - - - - - 16.4 1021.5 0.2
25/03:00pm W 12 15 - - - - - - - 16.7 1021.4 0.2
25/02:30pm WNW 10 13 - - - - - - - 16.7 1021.5 0.2
25/02:00pm W 11 15 - - - - - - - 16.3 1021.7 0.2
25/01:30pm W 15 20 - - - - - - - 16.1 1021.9 0.0
25/01:00pm WSW 19 26 - - - - - - - 14.8 1022.1 0.0
25/12:49pm WNW 13 26 - - - - - - - 15.5 1022.1 0.0

Other formats

Comma delimited format used in spreadsheet applications
http://www.bom.gov.au/fwo/IDS60701/IDS60701.95649.axf

JavaScript Object Notation format (JSON) in row-major order
http://www.bom.gov.au/fwo/IDS60701/IDS60701.95649.json

Data quality

Most of these data are generated automatically and are frequently updated. Quality checks on data are not normally performed. It is possible for incorrect values to appear. Refer to information at About Latest Weather Observations and please check the disclaimer before using these data.